sensor_id;sensor_type;location;lat;lon;timestamp;P1;durP1;ratioP1;P2;durP2;ratioP2
40757;SDS011;26462;47.384;19.218;2022-08-19T00:01:41;11.60;;;5.20;;
40757;SDS011;26462;47.384;19.218;2022-08-19T00:04:10;10.77;;;5.40;;
40757;SDS011;26462;47.384;19.218;2022-08-19T00:06:39;7.15;;;5.10;;
40757;SDS011;26462;47.384;19.218;2022-08-19T00:09:10;6.97;;;4.95;;
40757;SDS011;26462;47.384;19.218;2022-08-19T00:11:39;10.23;;;5.65;;
40757;SDS011;26462;47.384;19.218;2022-08-19T00:14:08;8.10;;;5.40;;
40757;SDS011;26462;47.384;19.218;2022-08-19T00:16:37;9.90;;;5.47;;
40757;SDS011;26462;47.384;19.218;2022-08-19T00:19:06;8.77;;;6.20;;
40757;SDS011;26462;47.384;19.218;2022-08-19T00:21:34;10.52;;;5.40;;
40757;SDS011;26462;47.384;19.218;2022-08-19T00:24:06;7.00;;;5.18;;
40757;SDS011;26462;47.384;19.218;2022-08-19T00:26:34;8.10;;;5.75;;
40757;SDS011;26462;47.384;19.218;2022-08-19T00:29:03;10.73;;;6.25;;
40757;SDS011;26462;47.384;19.218;2022-08-19T00:31:31;9.10;;;5.97;;
40757;SDS011;26462;47.384;19.218;2022-08-19T00:33:59;8.57;;;5.05;;
40757;SDS011;26462;47.384;19.218;2022-08-19T00:36:27;8.40;;;6.10;;
40757;SDS011;26462;47.384;19.218;2022-08-19T00:38:55;8.15;;;5.63;;
40757;SDS011;26462;47.384;19.218;2022-08-19T00:41:23;11.93;;;5.97;;
40757;SDS011;26462;47.384;19.218;2022-08-19T00:44:01;7.18;;;5.43;;
40757;SDS011;26462;47.384;19.218;2022-08-19T00:46:34;10.43;;;5.88;;
40757;SDS011;26462;47.384;19.218;2022-08-19T00:49:05;9.30;;;5.60;;
40757;SDS011;26462;47.384;19.218;2022-08-19T00:51:36;9.65;;;5.75;;
40757;SDS011;26462;47.384;19.218;2022-08-19T00:54:03;7.70;;;5.75;;
40757;SDS011;26462;47.384;19.218;2022-08-19T00:56:30;7.32;;;5.25;;
40757;SDS011;26462;47.384;19.218;2022-08-19T00:58:58;9.68;;;5.78;;
40757;SDS011;26462;47.384;19.218;2022-08-19T01:01:27;10.00;;;5.97;;
40757;SDS011;26462;47.384;19.218;2022-08-19T01:03:55;10.88;;;5.35;;
40757;SDS011;26462;47.384;19.218;2022-08-19T01:06:25;9.98;;;6.00;;
40757;SDS011;26462;47.384;19.218;2022-08-19T01:08:55;10.48;;;5.55;;
40757;SDS011;26462;47.384;19.218;2022-08-19T01:11:23;7.97;;;5.57;;
40757;SDS011;26462;47.384;19.218;2022-08-19T01:13:51;12.73;;;6.93;;
40757;SDS011;26462;47.384;19.218;2022-08-19T01:16:20;7.75;;;5.60;;
40757;SDS011;26462;47.384;19.218;2022-08-19T01:18:50;9.38;;;6.72;;
40757;SDS011;26462;47.384;19.218;2022-08-19T01:21:26;9.98;;;5.90;;
40757;SDS011;26462;47.384;19.218;2022-08-19T01:24:04;8.70;;;5.57;;
40757;SDS011;26462;47.384;19.218;2022-08-19T01:26:34;9.35;;;5.40;;
40757;SDS011;26462;47.384;19.218;2022-08-19T01:29:07;9.70;;;5.78;;
40757;SDS011;26462;47.384;19.218;2022-08-19T01:31:35;11.27;;;6.13;;
40757;SDS011;26462;47.384;19.218;2022-08-19T01:34:03;8.00;;;5.90;;
40757;SDS011;26462;47.384;19.218;2022-08-19T01:36:32;10.10;;;6.82;;
40757;SDS011;26462;47.384;19.218;2022-08-19T01:39:04;10.32;;;6.22;;
40757;SDS011;26462;47.384;19.218;2022-08-19T01:41:33;11.10;;;5.63;;
40757;SDS011;26462;47.384;19.218;2022-08-19T01:44:01;9.88;;;6.07;;
40757;SDS011;26462;47.384;19.218;2022-08-19T01:46:45;7.50;;;5.85;;
40757;SDS011;26462;47.384;19.218;2022-08-19T01:49:15;8.98;;;6.60;;
40757;SDS011;26462;47.384;19.218;2022-08-19T01:51:44;10.18;;;6.20;;
40757;SDS011;26462;47.384;19.218;2022-08-19T01:54:13;9.45;;;6.18;;
40757;SDS011;26462;47.384;19.218;2022-08-19T01:56:53;10.32;;;6.28;;
40757;SDS011;26462;47.384;19.218;2022-08-19T01:59:26;9.80;;;6.38;;
40757;SDS011;26462;47.384;19.218;2022-08-19T02:01:54;9.63;;;5.55;;
40757;SDS011;26462;47.384;19.218;2022-08-19T02:04:21;9.90;;;6.38;;
40757;SDS011;26462;47.384;19.218;2022-08-19T02:06:49;8.93;;;5.82;;
40757;SDS011;26462;47.384;19.218;2022-08-19T02:09:17;8.45;;;6.05;;
40757;SDS011;26462;47.384;19.218;2022-08-19T02:11:44;12.15;;;6.53;;
40757;SDS011;26462;47.384;19.218;2022-08-19T02:14:11;11.73;;;6.45;;
40757;SDS011;26462;47.384;19.218;2022-08-19T02:16:38;7.63;;;5.93;;
40757;SDS011;26462;47.384;19.218;2022-08-19T02:19:06;9.18;;;5.82;;
40757;SDS011;26462;47.384;19.218;2022-08-19T02:21:33;8.77;;;5.82;;
40757;SDS011;26462;47.384;19.218;2022-08-19T02:24:04;11.27;;;6.32;;
40757;SDS011;26462;47.384;19.218;2022-08-19T02:26:31;12.10;;;6.32;;
40757;SDS011;26462;47.384;19.218;2022-08-19T02:28:59;12.15;;;6.18;;
40757;SDS011;26462;47.384;19.218;2022-08-19T02:31:26;7.45;;;5.45;;
40757;SDS011;26462;47.384;19.218;2022-08-19T02:33:56;10.35;;;5.70;;
40757;SDS011;26462;47.384;19.218;2022-08-19T02:36:24;9.93;;;6.05;;
40757;SDS011;26462;47.384;19.218;2022-08-19T02:38:52;8.77;;;5.97;;
40757;SDS011;26462;47.384;19.218;2022-08-19T02:41:22;8.63;;;6.10;;
40757;SDS011;26462;47.384;19.218;2022-08-19T02:43:53;9.15;;;5.78;;
40757;SDS011;26462;47.384;19.218;2022-08-19T02:46:41;8.60;;;6.30;;
40757;SDS011;26462;47.384;19.218;2022-08-19T02:49:11;11.18;;;6.20;;
40757;SDS011;26462;47.384;19.218;2022-08-19T02:51:39;8.63;;;6.03;;
40757;SDS011;26462;47.384;19.218;2022-08-19T02:54:08;14.80;;;6.45;;
40757;SDS011;26462;47.384;19.218;2022-08-19T02:56:37;10.25;;;5.90;;
40757;SDS011;26462;47.384;19.218;2022-08-19T02:59:06;11.07;;;6.72;;
40757;SDS011;26462;47.384;19.218;2022-08-19T03:01:38;11.45;;;5.72;;
40757;SDS011;26462;47.384;19.218;2022-08-19T03:04:10;8.25;;;6.40;;
40757;SDS011;26462;47.384;19.218;2022-08-19T03:06:39;8.70;;;6.13;;
40757;SDS011;26462;47.384;19.218;2022-08-19T03:09:08;9.10;;;5.75;;
40757;SDS011;26462;47.384;19.218;2022-08-19T03:11:36;6.95;;;5.80;;
40757;SDS011;26462;47.384;19.218;2022-08-19T03:14:04;9.75;;;5.88;;
40757;SDS011;26462;47.384;19.218;2022-08-19T03:16:33;9.98;;;6.18;;
40757;SDS011;26462;47.384;19.218;2022-08-19T03:19:06;9.30;;;6.20;;
40757;SDS011;26462;47.384;19.218;2022-08-19T03:21:34;8.07;;;6.00;;
40757;SDS011;26462;47.384;19.218;2022-08-19T03:24:02;9.90;;;6.00;;
40757;SDS011;26462;47.384;19.218;2022-08-19T03:26:34;11.32;;;6.13;;
40757;SDS011;26462;47.384;19.218;2022-08-19T03:29:06;11.63;;;6.18;;
40757;SDS011;26462;47.384;19.218;2022-08-19T03:31:36;8.15;;;5.93;;
40757;SDS011;26462;47.384;19.218;2022-08-19T03:34:17;13.73;;;5.95;;
40757;SDS011;26462;47.384;19.218;2022-08-19T03:36:56;11.10;;;6.25;;
40757;SDS011;26462;47.384;19.218;2022-08-19T03:39:25;8.98;;;6.38;;
40757;SDS011;26462;47.384;19.218;2022-08-19T03:41:53;11.35;;;6.70;;
40757;SDS011;26462;47.384;19.218;2022-08-19T03:44:46;10.90;;;6.13;;
40757;SDS011;26462;47.384;19.218;2022-08-19T03:47:13;8.35;;;6.20;;
40757;SDS011;26462;47.384;19.218;2022-08-19T03:49:41;9.32;;;5.95;;
40757;SDS011;26462;47.384;19.218;2022-08-19T03:52:09;10.90;;;6.32;;
40757;SDS011;26462;47.384;19.218;2022-08-19T03:54:36;9.93;;;5.88;;
40757;SDS011;26462;47.384;19.218;2022-08-19T03:57:04;10.27;;;6.22;;
40757;SDS011;26462;47.384;19.218;2022-08-19T03:59:33;9.88;;;5.65;;
40757;SDS011;26462;47.384;19.218;2022-08-19T04:02:02;11.13;;;6.47;;
40757;SDS011;26462;47.384;19.218;2022-08-19T04:04:36;7.97;;;5.78;;
40757;SDS011;26462;47.384;19.218;2022-08-19T04:07:04;10.63;;;6.47;;
40757;SDS011;26462;47.384;19.218;2022-08-19T04:09:33;9.48;;;6.40;;
40757;SDS011;26462;47.384;19.218;2022-08-19T04:12:03;8.55;;;6.03;;
40757;SDS011;26462;47.384;19.218;2022-08-19T04:14:32;10.38;;;6.30;;
40757;SDS011;26462;47.384;19.218;2022-08-19T04:17:00;10.77;;;6.38;;
40757;SDS011;26462;47.384;19.218;2022-08-19T04:19:32;9.55;;;5.72;;
40757;SDS011;26462;47.384;19.218;2022-08-19T04:22:01;9.57;;;6.22;;
40757;SDS011;26462;47.384;19.218;2022-08-19T04:24:28;10.85;;;6.10;;
40757;SDS011;26462;47.384;19.218;2022-08-19T04:26:56;9.68;;;6.05;;
40757;SDS011;26462;47.384;19.218;2022-08-19T04:29:24;9.38;;;6.03;;
40757;SDS011;26462;47.384;19.218;2022-08-19T04:31:53;10.93;;;5.78;;
40757;SDS011;26462;47.384;19.218;2022-08-19T04:34:22;7.57;;;5.28;;
40757;SDS011;26462;47.384;19.218;2022-08-19T04:36:53;9.07;;;5.38;;
40757;SDS011;26462;47.384;19.218;2022-08-19T04:39:23;7.55;;;5.25;;
40757;SDS011;26462;47.384;19.218;2022-08-19T04:42:12;9.57;;;5.60;;
40757;SDS011;26462;47.384;19.218;2022-08-19T04:44:59;11.20;;;5.47;;
40757;SDS011;26462;47.384;19.218;2022-08-19T04:47:27;7.47;;;5.32;;
40757;SDS011;26462;47.384;19.218;2022-08-19T04:50:14;8.35;;;5.55;;
40757;SDS011;26462;47.384;19.218;2022-08-19T04:52:44;7.72;;;5.32;;
40757;SDS011;26462;47.384;19.218;2022-08-19T04:55:11;10.75;;;5.57;;
40757;SDS011;26462;47.384;19.218;2022-08-19T04:57:38;8.13;;;5.13;;
40757;SDS011;26462;47.384;19.218;2022-08-19T05:00:09;8.68;;;5.53;;
40757;SDS011;26462;47.384;19.218;2022-08-19T05:02:37;10.80;;;5.40;;
40757;SDS011;26462;47.384;19.218;2022-08-19T05:05:05;8.25;;;5.38;;
40757;SDS011;26462;47.384;19.218;2022-08-19T05:07:33;9.13;;;5.50;;
40757;SDS011;26462;47.384;19.218;2022-08-19T05:10:00;7.30;;;4.70;;
40757;SDS011;26462;47.384;19.218;2022-08-19T05:12:28;9.32;;;4.63;;
40757;SDS011;26462;47.384;19.218;2022-08-19T05:14:56;10.18;;;5.10;;
40757;SDS011;26462;47.384;19.218;2022-08-19T05:17:24;10.27;;;5.05;;
40757;SDS011;26462;47.384;19.218;2022-08-19T05:19:55;7.85;;;4.72;;
40757;SDS011;26462;47.384;19.218;2022-08-19T05:22:43;7.43;;;5.55;;
40757;SDS011;26462;47.384;19.218;2022-08-19T05:25:14;8.32;;;5.63;;
40757;SDS011;26462;47.384;19.218;2022-08-19T05:27:46;6.63;;;4.70;;
40757;SDS011;26462;47.384;19.218;2022-08-19T05:30:14;8.05;;;4.90;;
40757;SDS011;26462;47.384;19.218;2022-08-19T05:32:42;9.52;;;4.65;;
40757;SDS011;26462;47.384;19.218;2022-08-19T05:35:09;8.98;;;4.82;;
40757;SDS011;26462;47.384;19.218;2022-08-19T05:37:38;8.88;;;4.97;;
40757;SDS011;26462;47.384;19.218;2022-08-19T05:40:09;7.05;;;4.55;;
40757;SDS011;26462;47.384;19.218;2022-08-19T05:42:37;6.80;;;4.78;;
40757;SDS011;26462;47.384;19.218;2022-08-19T05:45:04;11.18;;;4.97;;
40757;SDS011;26462;47.384;19.218;2022-08-19T05:47:32;8.77;;;5.15;;
40757;SDS011;26462;47.384;19.218;2022-08-19T05:49:59;6.90;;;4.68;;
40757;SDS011;26462;47.384;19.218;2022-08-19T05:52:30;8.20;;;4.50;;
40757;SDS011;26462;47.384;19.218;2022-08-19T05:54:59;8.48;;;4.78;;
40757;SDS011;26462;47.384;19.218;2022-08-19T05:57:26;7.70;;;4.53;;
40757;SDS011;26462;47.384;19.218;2022-08-19T05:59:55;8.98;;;4.70;;
40757;SDS011;26462;47.384;19.218;2022-08-19T06:02:28;7.85;;;4.85;;
40757;SDS011;26462;47.384;19.218;2022-08-19T06:04:58;6.47;;;4.50;;
40757;SDS011;26462;47.384;19.218;2022-08-19T06:07:25;5.68;;;4.30;;
40757;SDS011;26462;47.384;19.218;2022-08-19T06:09:53;9.30;;;4.65;;
40757;SDS011;26462;47.384;19.218;2022-08-19T06:12:29;8.63;;;4.68;;
40757;SDS011;26462;47.384;19.218;2022-08-19T06:15:00;8.32;;;4.13;;
40757;SDS011;26462;47.384;19.218;2022-08-19T06:17:29;9.98;;;4.03;;
40757;SDS011;26462;47.384;19.218;2022-08-19T06:19:57;6.95;;;3.70;;
40757;SDS011;26462;47.384;19.218;2022-08-19T06:22:25;6.60;;;4.25;;
40757;SDS011;26462;47.384;19.218;2022-08-19T06:24:53;7.35;;;4.38;;
40757;SDS011;26462;47.384;19.218;2022-08-19T06:27:21;6.57;;;3.92;;
40757;SDS011;26462;47.384;19.218;2022-08-19T06:29:48;8.27;;;4.18;;
40757;SDS011;26462;47.384;19.218;2022-08-19T06:32:16;5.90;;;4.03;;
40757;SDS011;26462;47.384;19.218;2022-08-19T06:34:45;6.47;;;3.70;;
40757;SDS011;26462;47.384;19.218;2022-08-19T06:37:13;7.03;;;4.38;;
40757;SDS011;26462;47.384;19.218;2022-08-19T06:39:41;6.30;;;3.92;;
40757;SDS011;26462;47.384;19.218;2022-08-19T06:42:10;9.20;;;4.30;;
40757;SDS011;26462;47.384;19.218;2022-08-19T06:44:40;5.97;;;4.03;;
40757;SDS011;26462;47.384;19.218;2022-08-19T06:47:18;7.75;;;4.10;;
40757;SDS011;26462;47.384;19.218;2022-08-19T06:49:55;6.85;;;4.40;;
40757;SDS011;26462;47.384;19.218;2022-08-19T06:52:33;6.53;;;4.20;;
40757;SDS011;26462;47.384;19.218;2022-08-19T06:55:02;6.82;;;3.88;;
40757;SDS011;26462;47.384;19.218;2022-08-19T06:57:32;6.45;;;4.07;;
40757;SDS011;26462;47.384;19.218;2022-08-19T06:59:59;7.15;;;3.72;;
40757;SDS011;26462;47.384;19.218;2022-08-19T07:02:27;8.65;;;3.85;;
40757;SDS011;26462;47.384;19.218;2022-08-19T07:04:54;6.38;;;3.38;;
40757;SDS011;26462;47.384;19.218;2022-08-19T07:07:24;7.25;;;3.92;;
40757;SDS011;26462;47.384;19.218;2022-08-19T07:09:51;7.28;;;4.03;;
40757;SDS011;26462;47.384;19.218;2022-08-19T07:12:30;5.22;;;3.47;;
40757;SDS011;26462;47.384;19.218;2022-08-19T07:15:04;7.70;;;3.47;;
40757;SDS011;26462;47.384;19.218;2022-08-19T07:17:32;6.25;;;3.53;;
40757;SDS011;26462;47.384;19.218;2022-08-19T07:20:01;6.45;;;3.40;;
40757;SDS011;26462;47.384;19.218;2022-08-19T07:22:34;6.45;;;3.85;;
40757;SDS011;26462;47.384;19.218;2022-08-19T07:25:02;6.57;;;4.00;;
40757;SDS011;26462;47.384;19.218;2022-08-19T07:27:30;7.40;;;4.10;;
40757;SDS011;26462;47.384;19.218;2022-08-19T07:29:59;9.18;;;3.88;;
40757;SDS011;26462;47.384;19.218;2022-08-19T07:32:27;6.35;;;3.95;;
40757;SDS011;26462;47.384;19.218;2022-08-19T07:34:54;8.15;;;4.18;;
40757;SDS011;26462;47.384;19.218;2022-08-19T07:37:23;8.68;;;4.88;;
40757;SDS011;26462;47.384;19.218;2022-08-19T07:39:58;6.93;;;3.80;;
40757;SDS011;26462;47.384;19.218;2022-08-19T07:42:26;8.32;;;4.38;;
40757;SDS011;26462;47.384;19.218;2022-08-19T07:44:56;5.35;;;3.72;;
40757;SDS011;26462;47.384;19.218;2022-08-19T07:47:25;5.95;;;4.03;;
40757;SDS011;26462;47.384;19.218;2022-08-19T07:50:14;5.35;;;3.85;;
40757;SDS011;26462;47.384;19.218;2022-08-19T07:52:42;5.35;;;3.25;;
40757;SDS011;26462;47.384;19.218;2022-08-19T07:55:14;6.05;;;4.07;;
40757;SDS011;26462;47.384;19.218;2022-08-19T07:58:02;5.15;;;3.55;;
40757;SDS011;26462;47.384;19.218;2022-08-19T08:00:31;5.72;;;3.90;;
40757;SDS011;26462;47.384;19.218;2022-08-19T08:02:58;7.90;;;3.90;;
40757;SDS011;26462;47.384;19.218;2022-08-19T08:05:25;5.65;;;3.35;;
40757;SDS011;26462;47.384;19.218;2022-08-19T08:08:12;6.85;;;3.65;;
40757;SDS011;26462;47.384;19.218;2022-08-19T08:10:58;6.95;;;4.22;;
40757;SDS011;26462;47.384;19.218;2022-08-19T08:13:26;6.25;;;3.53;;
40757;SDS011;26462;47.384;19.218;2022-08-19T08:15:54;6.53;;;3.70;;
40757;SDS011;26462;47.384;19.218;2022-08-19T08:18:23;7.13;;;4.15;;
40757;SDS011;26462;47.384;19.218;2022-08-19T08:20:54;6.22;;;3.58;;
40757;SDS011;26462;47.384;19.218;2022-08-19T08:23:22;6.93;;;3.47;;
40757;SDS011;26462;47.384;19.218;2022-08-19T08:25:53;6.93;;;3.78;;
40757;SDS011;26462;47.384;19.218;2022-08-19T08:28:23;4.53;;;3.55;;
40757;SDS011;26462;47.384;19.218;2022-08-19T08:30:55;5.30;;;3.42;;
40757;SDS011;26462;47.384;19.218;2022-08-19T08:33:24;6.68;;;4.00;;
40757;SDS011;26462;47.384;19.218;2022-08-19T08:36:00;5.57;;;3.60;;
40757;SDS011;26462;47.384;19.218;2022-08-19T08:38:30;5.90;;;3.65;;
40757;SDS011;26462;47.384;19.218;2022-08-19T08:41:16;4.90;;;3.50;;
40757;SDS011;26462;47.384;19.218;2022-08-19T08:43:47;5.28;;;3.47;;
40757;SDS011;26462;47.384;19.218;2022-08-19T08:46:20;6.30;;;3.38;;
40757;SDS011;26462;47.384;19.218;2022-08-19T08:49:20;7.18;;;4.10;;
40757;SDS011;26462;47.384;19.218;2022-08-19T08:52:03;5.32;;;3.53;;
40757;SDS011;26462;47.384;19.218;2022-08-19T08:54:35;6.00;;;3.63;;
40757;SDS011;26462;47.384;19.218;2022-08-19T08:57:21;7.75;;;3.80;;
40757;SDS011;26462;47.384;19.218;2022-08-19T09:00:07;5.43;;;3.50;;
40757;SDS011;26462;47.384;19.218;2022-08-19T09:02:41;9.13;;;4.15;;
40757;SDS011;26462;47.384;19.218;2022-08-19T09:05:09;6.82;;;3.97;;
40757;SDS011;26462;47.384;19.218;2022-08-19T09:10:29;7.55;;;3.20;;
40757;SDS011;26462;47.384;19.218;2022-08-19T09:16:28;7.13;;;3.92;;
40757;SDS011;26462;47.384;19.218;2022-08-19T09:18:57;5.50;;;3.72;;
40757;SDS011;26462;47.384;19.218;2022-08-19T09:21:28;4.45;;;3.58;;
40757;SDS011;26462;47.384;19.218;2022-08-19T09:24:01;6.32;;;3.92;;
40757;SDS011;26462;47.384;19.218;2022-08-19T09:26:29;6.70;;;3.58;;
40757;SDS011;26462;47.384;19.218;2022-08-19T09:29:14;5.57;;;3.53;;
40757;SDS011;26462;47.384;19.218;2022-08-19T09:31:43;5.38;;;3.38;;
40757;SDS011;26462;47.384;19.218;2022-08-19T09:34:10;6.38;;;3.17;;
40757;SDS011;26462;47.384;19.218;2022-08-19T09:36:49;6.13;;;3.80;;
40757;SDS011;26462;47.384;19.218;2022-08-19T09:39:20;6.88;;;3.65;;
40757;SDS011;26462;47.384;19.218;2022-08-19T09:41:47;5.32;;;3.40;;
40757;SDS011;26462;47.384;19.218;2022-08-19T09:44:16;4.72;;;3.28;;
40757;SDS011;26462;47.384;19.218;2022-08-19T09:46:47;4.83;;;3.27;;
40757;SDS011;26462;47.384;19.218;2022-08-19T09:49:20;8.88;;;3.72;;
40757;SDS011;26462;47.384;19.218;2022-08-19T09:51:50;4.68;;;3.42;;
40757;SDS011;26462;47.384;19.218;2022-08-19T09:54:20;6.43;;;4.15;;
40757;SDS011;26462;47.384;19.218;2022-08-19T09:56:51;9.32;;;3.80;;
40757;SDS011;26462;47.384;19.218;2022-08-19T09:59:21;7.80;;;3.55;;
40757;SDS011;26462;47.384;19.218;2022-08-19T10:01:48;3.92;;;3.00;;
40757;SDS011;26462;47.384;19.218;2022-08-19T10:04:16;5.40;;;3.25;;
40757;SDS011;26462;47.384;19.218;2022-08-19T10:06:47;6.00;;;3.35;;
40757;SDS011;26462;47.384;19.218;2022-08-19T10:09:19;4.18;;;3.10;;
40757;SDS011;26462;47.384;19.218;2022-08-19T10:11:59;5.18;;;3.67;;
40757;SDS011;26462;47.384;19.218;2022-08-19T10:14:28;5.20;;;2.97;;
40757;SDS011;26462;47.384;19.218;2022-08-19T10:16:55;6.65;;;3.47;;
40757;SDS011;26462;47.384;19.218;2022-08-19T10:19:24;6.57;;;3.13;;
40757;SDS011;26462;47.384;19.218;2022-08-19T10:21:52;4.75;;;3.45;;
40757;SDS011;26462;47.384;19.218;2022-08-19T10:24:25;7.68;;;3.80;;
40757;SDS011;26462;47.384;19.218;2022-08-19T10:26:54;4.95;;;3.08;;
40757;SDS011;26462;47.384;19.218;2022-08-19T10:29:25;3.37;;;2.63;;
40757;SDS011;26462;47.384;19.218;2022-08-19T10:31:59;5.72;;;3.55;;
40757;SDS011;26462;47.384;19.218;2022-08-19T10:34:29;3.90;;;3.05;;
40757;SDS011;26462;47.384;19.218;2022-08-19T10:36:57;4.30;;;2.88;;
40757;SDS011;26462;47.384;19.218;2022-08-19T10:39:28;8.35;;;3.25;;
40757;SDS011;26462;47.384;19.218;2022-08-19T10:41:58;6.70;;;3.17;;
40757;SDS011;26462;47.384;19.218;2022-08-19T10:44:25;4.68;;;3.05;;
40757;SDS011;26462;47.384;19.218;2022-08-19T10:46:58;5.03;;;3.00;;
40757;SDS011;26462;47.384;19.218;2022-08-19T10:49:25;5.78;;;3.10;;
40757;SDS011;26462;47.384;19.218;2022-08-19T10:51:53;3.60;;;2.90;;
40757;SDS011;26462;47.384;19.218;2022-08-19T10:54:46;4.47;;;2.78;;
40757;SDS011;26462;47.384;19.218;2022-08-19T10:57:42;3.45;;;2.33;;
40757;SDS011;26462;47.384;19.218;2022-08-19T11:00:27;4.97;;;2.78;;
40757;SDS011;26462;47.384;19.218;2022-08-19T11:02:55;3.88;;;3.05;;
40757;SDS011;26462;47.384;19.218;2022-08-19T11:05:22;3.42;;;2.90;;
40757;SDS011;26462;47.384;19.218;2022-08-19T11:07:51;6.05;;;3.25;;
40757;SDS011;26462;47.384;19.218;2022-08-19T11:10:18;6.97;;;3.30;;
40757;SDS011;26462;47.384;19.218;2022-08-19T11:12:48;4.32;;;3.08;;
40757;SDS011;26462;47.384;19.218;2022-08-19T11:15:17;9.73;;;3.60;;
40757;SDS011;26462;47.384;19.218;2022-08-19T11:17:44;5.13;;;3.00;;
40757;SDS011;26462;47.384;19.218;2022-08-19T11:20:11;8.90;;;3.22;;
40757;SDS011;26462;47.384;19.218;2022-08-19T11:22:40;5.50;;;2.85;;
40757;SDS011;26462;47.384;19.218;2022-08-19T11:25:09;9.05;;;2.88;;
40757;SDS011;26462;47.384;19.218;2022-08-19T11:27:38;8.30;;;3.28;;
40757;SDS011;26462;47.384;19.218;2022-08-19T11:30:09;4.00;;;2.63;;
40757;SDS011;26462;47.384;19.218;2022-08-19T11:32:39;4.90;;;3.17;;
40757;SDS011;26462;47.384;19.218;2022-08-19T11:35:12;8.80;;;3.35;;
40757;SDS011;26462;47.384;19.218;2022-08-19T11:37:40;7.68;;;2.80;;
40757;SDS011;26462;47.384;19.218;2022-08-19T11:40:07;6.07;;;3.28;;
40757;SDS011;26462;47.384;19.218;2022-08-19T11:42:35;6.43;;;2.55;;
40757;SDS011;26462;47.384;19.218;2022-08-19T11:45:21;6.57;;;3.35;;
40757;SDS011;26462;47.384;19.218;2022-08-19T11:47:49;3.65;;;2.53;;
40757;SDS011;26462;47.384;19.218;2022-08-19T11:50:17;5.43;;;2.95;;
40757;SDS011;26462;47.384;19.218;2022-08-19T11:52:45;5.35;;;3.40;;
40757;SDS011;26462;47.384;19.218;2022-08-19T11:55:13;8.10;;;3.50;;
40757;SDS011;26462;47.384;19.218;2022-08-19T11:57:41;5.68;;;3.60;;
40757;SDS011;26462;47.384;19.218;2022-08-19T12:00:10;4.72;;;3.50;;
40757;SDS011;26462;47.384;19.218;2022-08-19T12:02:39;6.78;;;3.60;;
40757;SDS011;26462;47.384;19.218;2022-08-19T12:05:07;6.68;;;3.70;;
40757;SDS011;26462;47.384;19.218;2022-08-19T12:07:38;6.70;;;4.30;;
40757;SDS011;26462;47.384;19.218;2022-08-19T12:10:07;11.85;;;5.90;;
40757;SDS011;26462;47.384;19.218;2022-08-19T12:12:36;15.27;;;11.57;;
40757;SDS011;26462;47.384;19.218;2022-08-19T12:15:06;10.90;;;7.67;;
40757;SDS011;26462;47.384;19.218;2022-08-19T12:17:35;17.13;;;9.85;;
40757;SDS011;26462;47.384;19.218;2022-08-19T12:20:02;11.52;;;8.55;;
40757;SDS011;26462;47.384;19.218;2022-08-19T12:22:31;10.13;;;8.45;;
40757;SDS011;26462;47.384;19.218;2022-08-19T12:24:58;9.93;;;7.40;;
40757;SDS011;26462;47.384;19.218;2022-08-19T12:27:25;12.48;;;8.80;;
40757;SDS011;26462;47.384;19.218;2022-08-19T12:32:34;10.65;;;6.95;;
40757;SDS011;26462;47.384;19.218;2022-08-19T12:35:02;8.63;;;5.95;;
40757;SDS011;26462;47.384;19.218;2022-08-19T12:37:30;9.18;;;6.13;;
40757;SDS011;26462;47.384;19.218;2022-08-19T12:39:58;13.80;;;8.20;;
40757;SDS011;26462;47.384;19.218;2022-08-19T12:42:27;19.55;;;11.13;;
40757;SDS011;26462;47.384;19.218;2022-08-19T12:44:54;12.15;;;9.02;;
40757;SDS011;26462;47.384;19.218;2022-08-19T12:47:21;10.02;;;7.50;;
40757;SDS011;26462;47.384;19.218;2022-08-19T12:49:48;11.68;;;8.30;;
40757;SDS011;26462;47.384;19.218;2022-08-19T12:52:21;10.10;;;8.13;;
40757;SDS011;26462;47.384;19.218;2022-08-19T12:54:49;10.18;;;7.85;;
40757;SDS011;26462;47.384;19.218;2022-08-19T12:57:20;13.65;;;8.23;;
40757;SDS011;26462;47.384;19.218;2022-08-19T12:59:57;12.32;;;9.52;;
40757;SDS011;26462;47.384;19.218;2022-08-19T13:02:26;14.63;;;11.85;;
40757;SDS011;26462;47.384;19.218;2022-08-19T13:04:53;16.77;;;10.68;;
40757;SDS011;26462;47.384;19.218;2022-08-19T13:07:20;11.98;;;8.93;;
40757;SDS011;26462;47.384;19.218;2022-08-19T13:09:50;12.23;;;9.38;;
40757;SDS011;26462;47.384;19.218;2022-08-19T13:12:18;13.85;;;9.90;;
40757;SDS011;26462;47.384;19.218;2022-08-19T13:14:50;13.45;;;10.65;;
40757;SDS011;26462;47.384;19.218;2022-08-19T13:17:18;14.52;;;10.10;;
40757;SDS011;26462;47.384;19.218;2022-08-19T13:19:46;12.93;;;10.10;;
40757;SDS011;26462;47.384;19.218;2022-08-19T13:22:13;8.77;;;7.60;;
40757;SDS011;26462;47.384;19.218;2022-08-19T13:24:41;9.23;;;6.30;;
40757;SDS011;26462;47.384;19.218;2022-08-19T13:27:13;6.90;;;5.05;;
40757;SDS011;26462;47.384;19.218;2022-08-19T13:29:40;8.23;;;5.00;;
40757;SDS011;26462;47.384;19.218;2022-08-19T13:32:26;8.05;;;3.97;;
40757;SDS011;26462;47.384;19.218;2022-08-19T13:35:14;8.02;;;4.18;;
40757;SDS011;26462;47.384;19.218;2022-08-19T13:37:43;7.97;;;6.07;;
40757;SDS011;26462;47.384;19.218;2022-08-19T13:40:13;10.45;;;6.28;;
40757;SDS011;26462;47.384;19.218;2022-08-19T13:42:45;9.57;;;7.10;;
40757;SDS011;26462;47.384;19.218;2022-08-19T13:45:14;11.57;;;7.55;;
40757;SDS011;26462;47.384;19.218;2022-08-19T13:47:47;11.40;;;6.55;;
40757;SDS011;26462;47.384;19.218;2022-08-19T13:50:16;8.68;;;5.90;;
40757;SDS011;26462;47.384;19.218;2022-08-19T13:55:14;10.07;;;6.15;;
40757;SDS011;26462;47.384;19.218;2022-08-19T13:57:58;11.52;;;4.13;;
40757;SDS011;26462;47.384;19.218;2022-08-19T14:00:28;10.20;;;3.15;;
40757;SDS011;26462;47.384;19.218;2022-08-19T14:05:26;12.93;;;3.35;;
40757;SDS011;26462;47.384;19.218;2022-08-19T14:07:54;8.65;;;3.55;;
40757;SDS011;26462;47.384;19.218;2022-08-19T14:10:22;8.95;;;3.95;;
40757;SDS011;26462;47.384;19.218;2022-08-19T14:12:54;21.83;;;4.13;;
40757;SDS011;26462;47.384;19.218;2022-08-19T14:15:24;24.20;;;4.53;;
40757;SDS011;26462;47.384;19.218;2022-08-19T14:17:52;10.75;;;2.88;;
40757;SDS011;26462;47.384;19.218;2022-08-19T14:20:20;18.23;;;3.45;;
40757;SDS011;26462;47.384;19.218;2022-08-19T14:22:51;11.85;;;2.70;;
40757;SDS011;26462;47.384;19.218;2022-08-19T14:25:21;13.85;;;2.60;;
40757;SDS011;26462;47.384;19.218;2022-08-19T14:30:19;14.60;;;3.63;;
40757;SDS011;26462;47.384;19.218;2022-08-19T14:32:50;17.17;;;2.92;;
40757;SDS011;26462;47.384;19.218;2022-08-19T14:35:17;17.48;;;2.83;;
40757;SDS011;26462;47.384;19.218;2022-08-19T14:37:45;9.50;;;2.25;;
40757;SDS011;26462;47.384;19.218;2022-08-19T14:40:14;9.77;;;2.30;;
40757;SDS011;26462;47.384;19.218;2022-08-19T14:42:47;12.95;;;2.58;;
40757;SDS011;26462;47.384;19.218;2022-08-19T14:45:14;10.43;;;2.88;;
40757;SDS011;26462;47.384;19.218;2022-08-19T14:47:41;5.78;;;2.13;;
40757;SDS011;26462;47.384;19.218;2022-08-19T14:50:17;8.45;;;2.25;;
40757;SDS011;26462;47.384;19.218;2022-08-19T14:52:47;9.32;;;3.15;;
40757;SDS011;26462;47.384;19.218;2022-08-19T14:55:16;13.13;;;2.53;;
40757;SDS011;26462;47.384;19.218;2022-08-19T14:57:43;7.20;;;1.90;;
40757;SDS011;26462;47.384;19.218;2022-08-19T15:00:11;8.52;;;2.00;;
40757;SDS011;26462;47.384;19.218;2022-08-19T15:02:42;11.18;;;1.88;;
40757;SDS011;26462;47.384;19.218;2022-08-19T15:05:12;7.68;;;1.27;;
40757;SDS011;26462;47.384;19.218;2022-08-19T15:07:41;9.40;;;1.20;;